createdAt,value
2023-01-15T00:00:09.102Z,17.50
2023-01-15T00:02:38.348Z,17.08
2023-01-15T00:05:08.937Z,16.55
2023-01-15T00:07:39.396Z,17.45
2023-01-15T00:10:10.099Z,15.88
2023-01-15T00:12:39.225Z,17.50
2023-01-15T00:15:09.328Z,16.25
2023-01-15T00:17:38.409Z,16.30
2023-01-15T00:20:08.367Z,18.17
2023-01-15T00:22:39.112Z,16.15
2023-01-15T00:25:26.256Z,16.92
2023-01-15T00:27:55.329Z,19.20
2023-01-15T00:30:24.980Z,16.80
2023-01-15T00:32:54.309Z,16.00
2023-01-15T00:35:25.706Z,17.70
2023-01-15T00:37:56.127Z,17.38
2023-01-15T00:40:24.937Z,16.63
2023-01-15T00:42:54.727Z,14.45
2023-01-15T00:45:24.271Z,14.52
2023-01-15T00:47:53.847Z,14.13
2023-01-15T00:50:22.987Z,17.30
2023-01-15T00:52:51.792Z,17.33
2023-01-15T00:55:23.938Z,14.30
2023-01-15T00:57:52.804Z,14.85
2023-01-15T01:00:22.310Z,15.55
2023-01-15T01:02:51.164Z,13.98
2023-01-15T01:05:20.396Z,13.23
2023-01-15T01:07:49.233Z,15.73
2023-01-15T01:10:18.842Z,13.80
2023-01-15T01:12:51.880Z,17.13
2023-01-15T01:15:22.359Z,15.55
2023-01-15T01:17:51.489Z,14.25
2023-01-15T01:20:20.870Z,14.43
2023-01-15T01:22:50.897Z,13.23
2023-01-15T01:25:20.499Z,13.38
2023-01-15T01:27:51.069Z,13.38
2023-01-15T01:30:20.438Z,12.63
2023-01-15T01:32:49.235Z,14.73
2023-01-15T01:35:18.567Z,11.43
2023-01-15T01:37:51.804Z,13.05
2023-01-15T01:40:21.724Z,12.30
2023-01-15T01:42:52.812Z,13.23
2023-01-15T01:45:26.916Z,12.63
2023-01-15T01:48:01.853Z,10.80
2023-01-15T01:50:33.774Z,13.55
2023-01-15T01:53:09.485Z,11.55
2023-01-15T01:55:39.533Z,9.98
2023-01-15T01:58:13.320Z,11.52
2023-01-15T02:00:49.361Z,10.70
2023-01-15T02:03:22.644Z,16.02
2023-01-15T02:05:59.558Z,10.07
2023-01-15T02:08:32.472Z,11.18
2023-01-15T02:11:02.779Z,12.40
2023-01-15T02:13:41.751Z,13.63
2023-01-15T02:16:21.789Z,10.23
2023-01-15T02:18:59.921Z,9.55
2023-01-15T02:21:51.137Z,12.02
2023-01-15T02:24:33.083Z,11.30
2023-01-15T02:27:13.307Z,11.38
2023-01-15T02:29:54.068Z,10.88
2023-01-15T02:32:36.615Z,11.93
2023-01-15T02:35:14.831Z,12.18
2023-01-15T02:37:50.855Z,12.10
2023-01-15T02:40:23.934Z,8.43
2023-01-15T02:42:58.498Z,10.75
2023-01-15T02:45:32.279Z,11.00
2023-01-15T02:48:13.303Z,12.98
2023-01-15T02:50:47.995Z,10.80
2023-01-15T02:53:26.441Z,10.75
2023-01-15T02:56:04.358Z,10.43
2023-01-15T02:58:43.885Z,10.23
2023-01-15T03:01:20.140Z,13.25
2023-01-15T03:03:59.179Z,16.08
2023-01-15T03:06:39.734Z,13.45
2023-01-15T03:09:10.229Z,11.10
2023-01-15T03:11:49.097Z,12.00
2023-01-15T03:14:28.281Z,11.85
2023-01-15T03:17:05.798Z,12.05
2023-01-15T03:19:45.840Z,11.68
2023-01-15T03:22:27.229Z,13.27
2023-01-15T03:25:04.329Z,11.63
2023-01-15T03:27:37.305Z,11.60
2023-01-15T03:30:13.026Z,10.15
2023-01-15T03:32:42.145Z,9.77
2023-01-15T03:35:47.021Z,11.30
2023-01-15T03:38:29.765Z,12.95
2023-01-15T03:41:15.234Z,13.68
2023-01-15T03:44:03.187Z,12.05
2023-01-15T03:46:56.044Z,10.98
2023-01-15T03:49:39.922Z,11.20
2023-01-15T03:52:23.864Z,12.68
2023-01-15T03:55:11.166Z,12.43
2023-01-15T03:57:49.512Z,13.80
2023-01-15T04:00:26.366Z,11.30
2023-01-15T04:03:04.848Z,12.38
2023-01-15T04:05:39.003Z,11.48
2023-01-15T04:08:10.659Z,10.98
2023-01-15T04:10:39.530Z,10.35
2023-01-15T04:13:12.477Z,11.85
2023-01-15T04:15:43.461Z,11.68
2023-01-15T04:18:14.101Z,8.82
2023-01-15T04:20:43.775Z,10.85
2023-01-15T04:23:14.312Z,9.35
2023-01-15T04:25:43.610Z,11.20
2023-01-15T04:28:14.045Z,13.68
2023-01-15T04:30:43.777Z,11.52
2023-01-15T04:33:14.234Z,11.30
2023-01-15T04:35:43.160Z,8.45
2023-01-15T04:38:12.182Z,10.48
2023-01-15T04:40:58.400Z,9.80
2023-01-15T04:43:45.159Z,9.75
2023-01-15T04:46:14.127Z,10.75
2023-01-15T04:48:44.597Z,9.50
2023-01-15T04:51:13.726Z,9.60
2023-01-15T04:53:42.903Z,9.05
2023-01-15T04:56:11.864Z,8.18
2023-01-15T04:58:40.934Z,7.70
2023-01-15T05:01:14.018Z,7.53
2023-01-15T05:03:45.181Z,6.65
2023-01-15T05:06:14.578Z,7.63
2023-01-15T05:08:43.736Z,8.23
2023-01-15T05:11:13.187Z,8.50
2023-01-15T05:13:42.359Z,7.57
2023-01-15T05:16:14.519Z,6.18
2023-01-15T05:18:46.828Z,7.55
2023-01-15T05:21:18.503Z,6.35
2023-01-15T05:23:48.042Z,6.78
2023-01-15T05:26:17.085Z,7.07
2023-01-15T05:28:46.576Z,6.50
2023-01-15T05:31:18.589Z,7.20
2023-01-15T05:33:50.643Z,6.38
2023-01-15T05:36:22.992Z,5.70
2023-01-15T05:38:52.897Z,6.57
2023-01-15T05:41:41.015Z,5.43
2023-01-15T05:44:12.789Z,5.57
2023-01-15T05:46:44.865Z,5.53
2023-01-15T05:49:18.690Z,5.80
2023-01-15T05:51:48.154Z,6.95
2023-01-15T05:54:21.889Z,4.97
2023-01-15T05:56:50.812Z,6.00
2023-01-15T05:59:22.172Z,4.78
2023-01-15T06:01:51.475Z,5.90
2023-01-15T06:04:22.828Z,4.90
2023-01-15T06:06:53.737Z,4.90
2023-01-15T06:09:24.036Z,4.80
2023-01-15T06:11:54.100Z,4.72
2023-01-15T06:14:23.242Z,3.97
2023-01-15T06:16:52.082Z,5.90
2023-01-15T06:19:22.616Z,5.32
2023-01-15T06:21:51.395Z,6.43
2023-01-15T06:24:20.969Z,5.28
2023-01-15T06:26:49.915Z,3.58
2023-01-15T06:29:20.571Z,5.70
2023-01-15T06:31:50.200Z,4.43
2023-01-15T06:34:19.372Z,3.42
2023-01-15T06:36:49.523Z,6.68
2023-01-15T06:39:18.581Z,4.32
2023-01-15T06:42:19.232Z,3.88
2023-01-15T06:45:05.639Z,4.28
2023-01-15T06:47:34.455Z,5.38
2023-01-15T06:50:03.631Z,5.05
2023-01-15T06:52:33.816Z,5.63
2023-01-15T06:55:02.901Z,6.18
2023-01-15T06:57:31.768Z,4.95
2023-01-15T07:00:01.018Z,4.10
2023-01-15T07:02:29.809Z,4.22
2023-01-15T07:04:58.945Z,5.30
2023-01-15T07:07:30.436Z,3.53
2023-01-15T07:10:00.913Z,5.78
2023-01-15T07:12:30.549Z,4.68
2023-01-15T07:14:59.620Z,4.55
2023-01-15T07:17:28.431Z,5.25
2023-01-15T07:19:57.559Z,4.40
2023-01-15T07:22:26.367Z,6.13
2023-01-15T07:24:55.466Z,3.30
2023-01-15T07:27:25.759Z,3.42
2023-01-15T07:29:54.847Z,4.10
2023-01-15T07:32:23.639Z,3.47
2023-01-15T07:34:52.699Z,2.83
2023-01-15T07:37:21.473Z,4.97
2023-01-15T07:39:50.553Z,4.70
2023-01-15T07:42:37.034Z,4.18
2023-01-15T07:45:23.685Z,4.90
2023-01-15T07:48:09.861Z,3.40
2023-01-15T07:50:38.967Z,4.20
2023-01-15T07:53:07.736Z,3.63
2023-01-15T07:55:37.512Z,4.38
2023-01-15T07:58:06.324Z,4.47
2023-01-15T08:00:36.790Z,3.72
2023-01-15T08:03:06.602Z,5.00
2023-01-15T08:05:35.679Z,5.10
2023-01-15T08:08:04.525Z,3.20
2023-01-15T08:10:53.656Z,4.28
2023-01-15T08:13:39.855Z,4.55
2023-01-15T08:16:11.382Z,5.20
2023-01-15T08:18:40.826Z,4.15
2023-01-15T08:21:16.467Z,5.20
2023-01-15T08:23:46.672Z,4.78
2023-01-15T08:26:15.865Z,5.30
2023-01-15T08:28:44.693Z,5.15
2023-01-15T08:31:15.169Z,3.90
2023-01-15T08:33:44.003Z,3.28
2023-01-15T08:36:13.090Z,4.43
2023-01-15T08:38:41.855Z,4.25
2023-01-15T08:41:10.988Z,3.63
2023-01-15T08:43:39.743Z,3.17
2023-01-15T08:46:09.753Z,4.03
2023-01-15T08:48:40.177Z,3.72
2023-01-15T08:51:12.255Z,5.22
2023-01-15T08:53:41.711Z,5.15
2023-01-15T08:56:14.648Z,6.03
2023-01-15T08:58:44.116Z,4.57
2023-01-15T09:01:16.144Z,5.35
2023-01-15T09:03:46.603Z,4.68
2023-01-15T09:06:15.860Z,7.28
2023-01-15T09:08:44.701Z,4.80
2023-01-15T09:11:14.062Z,4.32
2023-01-15T09:13:44.478Z,5.53
2023-01-15T09:16:13.870Z,4.57
2023-01-15T09:18:43.389Z,5.65
2023-01-15T09:21:13.925Z,6.25
2023-01-15T09:23:42.709Z,4.55
2023-01-15T09:26:29.906Z,4.40
2023-01-15T09:28:59.869Z,5.90
2023-01-15T09:31:29.435Z,4.28
2023-01-15T09:33:59.256Z,5.45
2023-01-15T09:36:31.892Z,5.53
2023-01-15T09:39:02.881Z,5.18
2023-01-15T09:42:08.242Z,5.18
2023-01-15T09:45:15.008Z,5.43
2023-01-15T09:48:02.321Z,6.65
2023-01-15T09:50:48.524Z,6.57
2023-01-15T09:53:43.733Z,5.68
2023-01-15T09:56:22.264Z,6.13
2023-01-15T09:58:53.590Z,7.47
2023-01-15T10:01:30.179Z,8.18
2023-01-15T10:04:07.386Z,7.85
2023-01-15T10:06:45.762Z,8.52
2023-01-15T10:09:23.425Z,7.82
2023-01-15T10:12:19.128Z,8.35
2023-01-15T10:15:01.503Z,8.15
2023-01-15T10:17:41.581Z,9.77
2023-01-15T10:20:25.684Z,7.95
2023-01-15T10:23:20.269Z,9.07
2023-01-15T10:26:00.386Z,6.40
2023-01-15T10:28:32.362Z,6.38
2023-01-15T10:31:13.081Z,6.30
2023-01-15T10:34:04.898Z,6.10
2023-01-15T10:36:38.429Z,5.18
2023-01-15T10:39:21.489Z,5.35
2023-01-15T10:42:08.266Z,6.53
2023-01-15T10:44:51.014Z,5.07
2023-01-15T10:47:27.555Z,6.88
2023-01-15T10:49:59.536Z,6.72
2023-01-15T10:52:35.146Z,7.43
2023-01-15T10:55:18.265Z,6.53
2023-01-15T10:58:09.760Z,6.60
2023-01-15T11:00:41.059Z,5.95
2023-01-15T11:03:21.347Z,4.93
2023-01-15T11:05:50.695Z,7.35
2023-01-15T11:09:06.354Z,4.68
2023-01-15T11:11:44.897Z,6.25
2023-01-15T11:14:32.954Z,5.13
2023-01-15T11:17:19.628Z,4.38
2023-01-15T11:19:53.984Z,4.43
2023-01-15T11:22:23.151Z,7.35
2023-01-15T11:24:56.367Z,5.93
2023-01-15T11:27:29.595Z,4.47
2023-01-15T11:30:02.625Z,4.38
2023-01-15T11:32:35.306Z,4.53
2023-01-15T11:35:18.161Z,5.28
2023-01-15T11:37:46.987Z,4.80
2023-01-15T11:40:20.190Z,4.40
2023-01-15T11:43:08.320Z,4.60
2023-01-15T11:46:06.930Z,5.45
2023-01-15T11:49:01.916Z,5.63
2023-01-15T11:51:42.991Z,5.05
2023-01-15T11:54:16.402Z,5.38
2023-01-15T11:56:48.699Z,5.07
2023-01-15T11:59:20.974Z,8.15
2023-01-15T12:02:00.033Z,6.05
2023-01-15T12:04:38.757Z,5.72
2023-01-15T12:07:14.371Z,5.95
2023-01-15T12:10:14.163Z,6.75
2023-01-15T12:13:07.833Z,5.40
2023-01-15T12:15:51.676Z,6.82
2023-01-15T12:18:52.061Z,4.72
2023-01-15T12:21:53.875Z,5.55
2023-01-15T12:25:12.149Z,7.72
2023-01-15T12:27:57.327Z,6.53
2023-01-15T12:30:39.456Z,5.03
2023-01-15T12:33:23.399Z,4.63
2023-01-15T12:36:03.728Z,5.47
2023-01-15T12:38:57.066Z,6.65
2023-01-15T12:41:46.606Z,5.82
2023-01-15T12:44:40.631Z,6.68
2023-01-15T12:47:19.749Z,9.68
2023-01-15T12:49:57.542Z,6.30
2023-01-15T12:52:36.415Z,5.13
2023-01-15T12:55:15.589Z,4.75
2023-01-15T12:57:50.884Z,6.30
2023-01-15T13:00:26.666Z,4.95
2023-01-15T13:03:16.012Z,8.70
2023-01-15T13:05:50.199Z,5.53
2023-01-15T13:08:28.613Z,4.97
2023-01-15T13:10:58.028Z,4.43
2023-01-15T13:13:31.899Z,4.72
2023-01-15T13:16:17.445Z,4.35
2023-01-15T13:19:02.895Z,4.95
2023-01-15T13:21:36.895Z,5.38
2023-01-15T13:24:56.895Z,5.10
2023-01-15T13:27:49.733Z,8.13
2023-01-15T13:30:41.655Z,6.43
2023-01-15T13:33:28.337Z,5.95
2023-01-15T13:36:07.771Z,7.55
2023-01-15T13:38:44.247Z,7.47
2023-01-15T13:41:37.195Z,8.15
2023-01-15T13:44:06.669Z,9.07
2023-01-15T13:46:35.885Z,6.47
2023-01-15T13:49:05.596Z,5.95
2023-01-15T13:51:39.159Z,6.90
2023-01-15T13:54:17.776Z,5.10
2023-01-15T13:56:48.372Z,5.57
2023-01-15T13:59:45.974Z,6.60
2023-01-15T14:02:30.496Z,6.20
2023-01-15T14:04:59.950Z,6.68
2023-01-15T14:07:36.980Z,4.70
2023-01-15T14:10:26.756Z,7.30
2023-01-15T14:13:26.603Z,6.15
2023-01-15T14:16:13.996Z,8.43
2023-01-15T14:19:09.480Z,5.97
2023-01-15T14:21:56.812Z,5.70
2023-01-15T14:24:57.555Z,6.60
2023-01-15T14:27:54.564Z,5.43
2023-01-15T14:30:59.951Z,7.15
2023-01-15T14:33:46.052Z,5.13
2023-01-15T14:36:21.992Z,5.38
2023-01-15T14:38:57.036Z,6.25
2023-01-15T14:41:31.238Z,5.63
2023-01-15T14:44:03.156Z,7.07
2023-01-15T14:46:38.755Z,8.43
2023-01-15T14:49:29.290Z,8.57
2023-01-15T14:52:00.620Z,8.15
2023-01-15T14:54:31.636Z,5.88
2023-01-15T14:57:03.385Z,7.63
2023-01-15T14:59:48.357Z,8.50
2023-01-15T15:02:25.524Z,7.70
2023-01-15T15:04:58.163Z,10.15
2023-01-15T15:07:39.380Z,9.95
2023-01-15T15:10:22.458Z,9.65
2023-01-15T15:13:04.247Z,15.18
2023-01-15T15:15:48.042Z,15.60
2023-01-15T15:18:32.426Z,10.82
2023-01-15T15:21:09.662Z,9.27
2023-01-15T15:23:47.096Z,10.02
2023-01-15T15:26:27.014Z,8.77
2023-01-15T15:29:01.842Z,8.52
2023-01-15T15:31:37.490Z,8.50
2023-01-15T15:34:17.462Z,9.82
2023-01-15T15:36:48.089Z,7.47
2023-01-15T15:39:24.273Z,9.13
2023-01-15T15:42:16.311Z,7.30
2023-01-15T15:45:11.637Z,9.20
2023-01-15T15:48:00.686Z,7.15
2023-01-15T15:50:34.621Z,8.05
2023-01-15T15:53:04.636Z,11.30
2023-01-15T15:55:40.640Z,7.63
2023-01-15T15:58:23.035Z,7.28
2023-01-15T16:00:53.697Z,8.93
2023-01-15T16:03:25.916Z,6.65
2023-01-15T16:06:01.935Z,8.10
2023-01-15T16:08:32.800Z,8.52
2023-01-15T16:11:06.087Z,10.25
2023-01-15T16:13:42.420Z,9.95
2023-01-15T16:16:14.011Z,9.35
2023-01-15T16:18:47.179Z,8.82
2023-01-15T16:21:25.447Z,9.18
2023-01-15T16:23:58.749Z,12.75
2023-01-15T16:26:36.206Z,11.13
2023-01-15T16:29:19.612Z,12.25
2023-01-15T16:31:49.277Z,9.13
2023-01-15T16:34:22.936Z,9.95
2023-01-15T16:36:53.824Z,9.70
2023-01-15T16:39:28.777Z,10.52
2023-01-15T16:42:02.405Z,10.38
2023-01-15T16:44:43.993Z,9.02
2023-01-15T16:47:25.080Z,9.38
2023-01-15T16:49:54.492Z,9.63
2023-01-15T16:52:54.578Z,7.90
2023-01-15T16:55:45.499Z,8.52
2023-01-15T16:58:22.189Z,8.73
2023-01-15T17:00:55.853Z,9.38
2023-01-15T17:03:28.476Z,11.77
2023-01-15T17:06:01.675Z,10.70
2023-01-15T17:08:39.611Z,9.68
2023-01-15T17:11:22.237Z,11.10
2023-01-15T17:13:52.293Z,9.13
2023-01-15T17:16:23.491Z,9.93
2023-01-15T17:18:53.124Z,9.88
2023-01-15T17:21:28.569Z,10.63
2023-01-15T17:24:00.715Z,11.95
2023-01-15T17:26:29.647Z,9.50
2023-01-15T17:28:58.743Z,9.45
2023-01-15T17:31:30.868Z,9.75
2023-01-15T17:34:02.654Z,8.80
2023-01-15T17:36:34.603Z,10.52
2023-01-15T17:39:05.666Z,11.35
2023-01-15T17:41:34.436Z,9.32
2023-01-15T17:44:04.147Z,11.02
2023-01-15T17:46:32.967Z,12.23
2023-01-15T17:49:02.047Z,10.68
2023-01-15T17:51:30.852Z,12.60
2023-01-15T17:53:59.994Z,12.52
2023-01-15T17:56:47.317Z,12.70
2023-01-15T17:59:34.155Z,12.82
2023-01-15T18:02:18.497Z,12.68
2023-01-15T18:05:09.927Z,14.35
2023-01-15T18:07:42.777Z,13.80
2023-01-15T18:10:18.811Z,13.98
2023-01-15T18:12:49.438Z,16.27
2023-01-15T18:15:19.663Z,14.88
2023-01-15T18:17:48.786Z,13.52
2023-01-15T18:20:18.151Z,16.40
2023-01-15T18:22:47.052Z,13.77
2023-01-15T18:25:16.198Z,12.65
2023-01-15T18:27:45.257Z,15.10
2023-01-15T18:30:18.465Z,15.27
2023-01-15T18:32:47.562Z,12.38
2023-01-15T18:35:18.343Z,14.15
2023-01-15T18:37:47.403Z,14.30
2023-01-15T18:40:16.824Z,12.48
2023-01-15T18:43:02.941Z,13.27
2023-01-15T18:45:50.907Z,14.40
2023-01-15T18:48:19.719Z,10.52
2023-01-15T18:50:49.252Z,11.10
2023-01-15T18:53:18.049Z,9.05
2023-01-15T18:55:47.185Z,10.43
2023-01-15T18:58:16.067Z,11.35
2023-01-15T19:00:46.610Z,10.07
2023-01-15T19:03:15.482Z,8.05
2023-01-15T19:05:44.708Z,7.32
2023-01-15T19:08:13.585Z,6.00
2023-01-15T19:10:42.807Z,8.07
2023-01-15T19:13:13.571Z,6.40
2023-01-15T19:16:01.076Z,6.40
2023-01-15T19:18:44.474Z,5.00
2023-01-15T19:21:13.992Z,7.63
2023-01-15T19:23:43.012Z,7.13
2023-01-15T19:26:12.427Z,5.57
2023-01-15T19:28:41.547Z,7.35
2023-01-15T19:31:29.341Z,5.82
2023-01-15T19:34:31.203Z,4.93
2023-01-15T19:36:50.227Z,4.75
2023-01-15T19:39:19.207Z,4.68
2023-01-15T19:42:05.814Z,5.18
2023-01-15T19:44:52.135Z,6.22
2023-01-15T19:47:46.970Z,5.50
2023-01-15T19:50:21.420Z,5.32
2023-01-15T19:52:52.770Z,6.05
2023-01-15T19:55:24.125Z,4.35
2023-01-15T19:58:00.086Z,4.72
2023-01-15T20:00:30.592Z,6.20
2023-01-15T20:02:59.997Z,6.43
2023-01-15T20:05:32.658Z,6.30
2023-01-15T20:08:01.877Z,6.85
2023-01-15T20:10:31.907Z,6.20
2023-01-15T20:13:19.316Z,5.30
2023-01-15T20:15:48.355Z,7.15
2023-01-15T20:18:18.786Z,7.68
2023-01-15T20:20:49.440Z,7.47
2023-01-15T20:23:18.553Z,8.32
2023-01-15T20:25:53.420Z,6.88
2023-01-15T20:28:22.589Z,6.63
2023-01-15T20:30:53.561Z,6.32
2023-01-15T20:33:23.057Z,6.30
2023-01-15T20:35:54.573Z,5.70
2023-01-15T20:38:24.433Z,6.75
2023-01-15T20:40:53.629Z,6.82
2023-01-15T20:43:40.167Z,7.22
2023-01-15T20:46:12.248Z,9.05
2023-01-15T20:48:58.763Z,8.05
2023-01-15T20:51:29.030Z,8.95
2023-01-15T20:53:59.121Z,8.18
2023-01-15T20:56:27.985Z,8.32
2023-01-15T20:58:58.386Z,9.63
2023-01-15T21:01:28.696Z,8.95
2023-01-15T21:03:57.916Z,7.60
2023-01-15T21:06:28.265Z,8.80
2023-01-15T21:08:57.502Z,8.10
2023-01-15T21:11:26.836Z,9.23
2023-01-15T21:13:55.963Z,8.18
2023-01-15T21:16:24.804Z,8.20
2023-01-15T21:18:54.067Z,6.75
2023-01-15T21:21:22.930Z,6.93
2023-01-15T21:23:53.412Z,7.78
2023-01-15T21:26:24.400Z,7.38
2023-01-15T21:28:55.598Z,7.07
2023-01-15T21:31:24.749Z,7.03
2023-01-15T21:33:55.288Z,6.18
2023-01-15T21:36:24.809Z,6.03
2023-01-15T21:38:57.780Z,6.03
2023-01-15T21:41:41.849Z,7.85
2023-01-15T21:44:34.851Z,7.95
2023-01-15T21:47:06.812Z,6.57
2023-01-15T21:49:36.558Z,5.65
2023-01-15T21:52:10.290Z,5.03
2023-01-15T21:54:41.429Z,6.88
2023-01-15T21:57:11.764Z,8.07
2023-01-15T21:59:41.270Z,8.15
2023-01-15T22:02:16.929Z,7.63
2023-01-15T22:04:47.105Z,9.30
2023-01-15T22:07:18.095Z,7.13
2023-01-15T22:09:48.624Z,8.55
2023-01-15T22:12:17.696Z,7.20
2023-01-15T22:14:47.216Z,7.43
2023-01-15T22:17:16.152Z,5.50
2023-01-15T22:19:45.211Z,6.63
2023-01-15T22:22:14.025Z,6.25
2023-01-15T22:24:43.573Z,6.38
2023-01-15T22:27:17.145Z,6.20
2023-01-15T22:29:46.233Z,6.95
2023-01-15T22:32:16.313Z,5.25
2023-01-15T22:34:45.389Z,6.75
2023-01-15T22:37:15.305Z,5.20
2023-01-15T22:39:44.331Z,6.50
2023-01-15T22:42:27.772Z,5.57
2023-01-15T22:45:00.150Z,4.90
2023-01-15T22:47:30.749Z,5.88
2023-01-15T22:49:59.864Z,5.68
2023-01-15T22:52:28.702Z,6.68
2023-01-15T22:54:57.949Z,5.20
2023-01-15T22:57:31.013Z,5.93
2023-01-15T23:00:00.230Z,7.45
2023-01-15T23:02:46.652Z,5.13
2023-01-15T23:05:15.904Z,4.93
2023-01-15T23:07:44.692Z,4.05
2023-01-15T23:10:14.915Z,4.15
2023-01-15T23:12:45.379Z,6.22
2023-01-15T23:15:16.333Z,5.20
2023-01-15T23:17:45.185Z,5.80
2023-01-15T23:20:15.133Z,7.28
2023-01-15T23:22:44.007Z,6.00
2023-01-15T23:25:13.104Z,5.35
2023-01-15T23:27:41.961Z,6.93
2023-01-15T23:30:14.033Z,5.35
2023-01-15T23:32:43.000Z,6.13
2023-01-15T23:35:12.092Z,5.38
2023-01-15T23:37:40.907Z,5.07
2023-01-15T23:40:11.767Z,6.07
2023-01-15T23:42:58.401Z,6.45
2023-01-15T23:45:51.863Z,4.65
2023-01-15T23:48:20.818Z,4.72
2023-01-15T23:50:49.917Z,5.63
2023-01-15T23:53:18.699Z,5.50
2023-01-15T23:55:47.848Z,6.38
2023-01-15T23:58:16.884Z,5.03
